Time;durP1;ratioP1;P1;durP2;ratioP2;P2;SDS_P1;SDS_P2;PMS_P1;PMS_P2;Temp;Humidity;BMP_temperature;BMP_pressure;BME280_temperature;BME280_humidity;BME280_pressure;Samples;Min_cycle;Max_cycle;Signal;HPM_P1;HPM_P2
2022/05/29 00:02:59;;;;;;;8.17;2.60;;;;;;;5.72;100.00;96404.19;10352587;28;20304;-75
2022/05/29 00:07:59;;;;;;;6.43;2.47;;;;;;;5.53;100.00;96393.78;10369267;28;20292;-75
2022/05/29 00:13:00;;;;;;;4.77;2.10;;;;;;;5.41;100.00;96395.66;10352470;28;20185;-75
2022/05/29 00:18:00;;;;;;;5.03;2.07;;;;;;;5.40;100.00;96386.19;10369282;28;20362;-75
2022/05/29 00:23:00;;;;;;;13.40;2.90;;;;;;;5.22;100.00;96391.19;10368480;28;20372;-75
2022/05/29 00:28:01;;;;;;;10.77;3.10;;;;;;;4.99;100.00;96390.56;10367474;28;20195;-75
2022/05/29 00:33:01;;;;;;;6.50;2.50;;;;;;;5.00;100.00;96385.22;10369320;28;20185;-75
2022/05/29 00:38:02;;;;;;;9.77;2.77;;;;;;;4.96;100.00;96378.69;10368386;28;20188;-74
2022/05/29 00:43:03;;;;;;;4.33;2.20;;;;;;;4.93;100.00;96378.94;10351348;28;20227;-75
2022/05/29 00:48:04;;;;;;;5.10;2.53;;;;;;;4.76;100.00;96374.31;10368884;28;20193;-74
2022/05/29 00:53:04;;;;;;;6.33;2.40;;;;;;;4.67;100.00;96373.34;10368801;28;20301;-75
2022/05/29 00:58:05;;;;;;;10.40;2.60;;;;;;;4.52;100.00;96362.47;10368756;28;20315;-75
2022/05/29 01:03:06;;;;;;;7.60;2.70;;;;;;;4.43;100.00;96355.44;10367065;28;20213;-75
2022/05/29 01:08:13;;;;;;;9.17;2.80;;;;;;;4.26;100.00;96360.25;10368687;28;20191;-75
2022/05/29 01:13:20;;;;;;;12.43;2.87;;;;;;;4.07;100.00;96362.69;10367052;28;20195;-75
2022/05/29 01:18:32;;;;;;;6.93;2.97;;;;;;;3.98;100.00;96358.25;10368347;28;20267;-74
2022/05/29 01:24:01;;;;;;;7.80;2.70;;;;;;;3.91;100.00;96355.34;10368012;28;20225;-77
2022/05/29 01:29:04;;;;;;;5.97;2.70;;;;;;;3.89;100.00;96352.88;10367854;28;20189;-75
2022/05/29 01:34:24;;;;;;;10.40;2.47;;;;;;;3.88;100.00;96351.22;10349892;28;20193;-77
2022/05/29 01:39:38;;;;;;;8.57;2.90;;;;;;;3.67;100.00;96345.19;10368061;28;20225;-75
2022/05/29 01:44:45;;;;;;;11.87;3.07;;;;;;;3.59;100.00;96352.75;10366100;28;20229;-75
2022/05/29 01:49:50;;;;;;;7.07;2.57;;;;;;;3.49;100.00;96352.63;10368383;28;20193;-75
2022/05/29 01:54:55;;;;;;;8.57;2.67;;;;;;;3.51;100.00;96353.34;10374688;28;20245;-75
2022/05/29 02:00:03;;;;;;;7.63;2.93;;;;;;;3.49;100.00;96348.31;10375176;28;20722;-76
2022/05/29 02:05:10;;;;;;;6.47;2.63;;;;;;;3.44;100.00;96339.25;10373313;28;20724;-77
2022/05/29 02:10:22;;;;;;;10.97;2.90;;;;;;;3.37;100.00;96338.91;10356916;28;20220;-75
2022/05/29 02:15:44;;;;;;;4.57;2.57;;;;;;;3.14;100.00;96340.69;10356679;28;20251;-75
2022/05/29 02:20:47;;;;;;;10.30;3.70;;;;;;;2.82;100.00;96337.06;10372729;28;20189;-75
2022/05/29 02:25:49;;;;;;;6.30;2.87;;;;;;;2.78;100.00;96340.81;10373756;28;20751;-75
2022/05/29 02:31:19;;;;;;;8.87;3.13;;;;;;;2.82;100.00;96334.50;10373529;28;20264;-75
2022/05/29 02:36:53;;;;;;;12.10;3.40;;;;;;;2.72;100.00;96324.97;10354328;28;20210;-75
2022/05/29 02:42:21;;;;;;;9.23;3.13;;;;;;;2.80;100.00;96323.44;10351786;28;20229;-75
2022/05/29 02:47:39;;;;;;;4.73;2.27;;;;;;;2.82;100.00;96320.75;10371725;28;20205;-75
2022/05/29 02:52:39;;;;;;;7.10;2.43;;;;;;;2.83;100.00;96317.19;10372046;28;20542;-75
2022/05/29 02:57:40;;;;;;;5.87;2.73;;;;;;;2.83;100.00;96314.59;10372152;28;20249;-75
2022/05/29 03:02:52;;;;;;;7.50;3.17;;;;;;;2.82;100.00;96313.78;10375396;28;20220;-75
2022/05/29 03:08:17;;;;;;;5.90;2.80;;;;;;;2.77;100.00;96304.72;10392911;28;20411;-75
2022/05/29 03:13:38;;;;;;;6.60;2.97;;;;;;;2.66;100.00;96303.81;10408983;28;20584;-74
2022/05/29 03:18:50;;;;;;;7.80;2.90;;;;;;;2.60;100.00;96304.25;10408138;28;20287;-75
2022/05/29 03:24:14;;;;;;;12.57;3.10;;;;;;;2.60;100.00;96293.91;10390838;28;20292;-75
2022/05/29 03:29:25;;;;;;;9.10;3.43;;;;;;;2.64;100.00;96297.91;10390611;28;20676;-75
2022/05/29 03:34:26;;;;;;;2.77;2.47;;;;;;;2.61;100.00;96292.16;10374590;28;20193;-75
2022/05/29 03:39:26;;;;;;;14.70;2.73;;;;;;;2.57;100.00;96303.69;10391019;28;20197;-75
2022/05/29 03:44:26;;;;;;;5.30;3.20;;;;;;;2.59;100.00;96297.47;10408234;28;20259;-75
2022/05/29 03:49:27;;;;;;;4.97;3.00;;;;;;;2.71;100.00;96293.13;10408003;28;20279;-75
2022/05/29 03:54:27;;;;;;;7.03;2.97;;;;;;;2.71;100.00;96302.63;10407847;28;20323;-75
2022/05/29 03:59:27;;;;;;;4.37;2.17;;;;;;;2.83;100.00;96299.09;10408084;28;20189;-75
2022/05/29 04:04:28;;;;;;;8.20;2.47;;;;;;;2.89;100.00;96297.78;10410537;28;20304;-75
2022/05/29 04:14:47;;;;;;;5.87;3.10;;;;;;;3.07;100.00;96298.94;10395111;28;20656;-75
2022/05/29 04:19:47;;;;;;;5.87;2.37;;;;;;;3.20;100.00;96283.25;10393297;28;20197;-75
2022/05/29 04:24:48;;;;;;;8.17;3.30;;;;;;;3.37;100.00;96287.13;10410243;28;20230;-75
2022/05/29 04:29:48;;;;;;;6.27;2.70;;;;;;;3.72;100.00;96280.84;10410412;28;20196;-75
2022/05/29 04:34:53;;;;;;;9.30;2.70;;;;;;;3.82;100.00;96279.16;10410608;28;20636;-75
2022/05/29 04:39:53;;;;;;;8.07;2.30;;;;;;;4.00;100.00;96279.44;10410021;28;20541;-75
2022/05/29 04:44:54;;;;;;;7.07;2.33;;;;;;;4.28;100.00;96269.38;10392856;28;20220;-75
2022/05/29 04:49:54;;;;;;;6.53;2.60;;;;;;;4.52;100.00;96265.66;10409545;28;20743;-75
2022/05/29 04:54:55;;;;;;;5.90;2.20;;;;;;;4.79;100.00;96270.25;10409973;28;20283;-75
2022/05/29 04:59:57;;;;;;;6.27;2.20;;;;;;;4.99;100.00;96264.19;10409838;28;20196;-75
2022/05/29 05:04:57;;;;;;;6.33;2.40;;;;;;;5.18;100.00;96268.59;10409421;28;20223;-75
2022/05/29 05:09:57;;;;;;;7.80;2.30;;;;;;;5.47;100.00;96254.03;10392169;28;20200;-75
2022/05/29 05:14:58;;;;;;;5.23;2.27;;;;;;;5.83;100.00;96262.06;10391630;28;20231;-75
2022/05/29 05:19:58;;;;;;;6.47;2.23;;;;;;;6.12;100.00;96254.25;10409349;28;20196;-75
2022/05/29 05:24:59;;;;;;;6.97;2.30;;;;;;;6.52;100.00;96253.19;10410387;28;20224;-75
2022/05/29 05:29:59;;;;;;;13.13;2.80;;;;;;;7.08;100.00;96246.22;10417749;28;20199;-75
2022/05/29 05:35:03;;;;;;;7.27;1.70;;;;;;;7.54;100.00;96237.56;10416968;28;20189;-75
2022/05/29 05:40:07;;;;;;;6.80;1.67;;;;;;;7.88;100.00;96227.25;10416866;28;20534;-76
2022/05/29 05:45:10;;;;;;;7.60;1.83;;;;;;;7.98;100.00;96219.34;10417106;28;20212;-75
2022/05/29 05:50:11;;;;;;;14.83;2.37;;;;;;;8.26;99.40;96214.78;10416438;28;20242;-75
2022/05/29 05:55:12;;;;;;;7.93;1.50;;;;;;;8.54;96.48;96205.00;10416500;28;20282;-76
2022/05/29 06:00:14;;;;;;;6.37;1.70;;;;;;;8.96;90.70;96181.63;10416332;28;20196;-76
2022/05/29 06:05:15;;;;;;;5.63;1.97;;;;;;;9.26;88.52;96186.28;10416052;28;20696;-75
2022/05/29 06:10:15;;;;;;;8.77;2.23;;;;;;;8.93;87.99;96196.66;10357262;28;20197;-76
2022/05/29 06:15:15;;;;;;;8.27;2.17;;;;;;;8.86;87.92;96203.50;10357373;28;20192;-77
2022/05/29 06:20:16;;;;;;;5.07;2.07;;;;;;;9.51;86.20;96183.69;10374079;28;20204;-76
2022/05/29 06:25:17;;;;;;;7.33;1.93;;;;;;;9.78;85.36;96189.56;10374452;28;20217;-76
2022/05/29 06:30:17;;;;;;;10.43;1.73;;;;;;;10.68;80.83;96155.34;10356271;28;20189;-76
2022/05/29 06:35:18;;;;;;;9.25;2.17;;;;;;;11.76;77.20;96132.66;10374216;28;20593;-76
2022/05/29 06:40:18;;;;;;;4.10;1.65;;;;;;;11.26;76.98;96149.78;10372941;28;20288;-76
2022/05/29 06:45:19;;;;;;;5.03;1.85;;;;;;;10.11;76.65;96147.69;10355633;28;20697;-77
2022/05/29 06:50:19;;;;;;;8.87;2.63;;;;;;;9.59;83.17;96232.56;10373454;28;20193;-76
2022/05/29 06:55:21;;;;;;;12.02;2.10;;;;;;;10.39;78.89;96168.25;10371646;28;20240;-77
2022/05/29 07:11:07;;;;;;;12.27;2.57;;;;;;;9.80;79.17;96172.75;10372670;28;20193;-77
2022/05/29 07:16:08;;;;;;;7.63;2.00;;;;;;;11.29;76.92;96154.69;10354675;28;20570;-76
2022/05/29 07:21:08;;;;;;;5.88;2.20;;;;;;;11.66;73.57;96113.72;10372099;28;20251;-77
2022/05/29 07:26:09;;;;;;;9.93;2.20;;;;;;;11.27;72.01;96109.47;10372020;28;20231;-76
2022/05/29 07:31:09;;;;;;;9.38;1.90;;;;;;;10.80;71.66;96097.34;10353830;28;20198;-76
2022/05/29 07:36:11;;;;;;;6.57;1.73;;;;;;;11.29;70.96;96102.25;10372053;28;20189;-76
2022/05/29 07:46:30;;;;;;;10.00;2.20;;;;;;;9.73;73.91;96142.97;10371415;28;20221;-76
2022/05/29 07:51:30;;;;;;;3.33;1.90;;;;;;;11.04;71.60;96118.16;10370732;28;20189;-77
2022/05/29 07:56:31;;;;;;;5.03;1.83;;;;;;;11.05;72.79;96139.91;10370935;28;20240;-76
2022/05/29 08:01:32;;;;;;;5.53;1.63;;;;;;;11.78;70.88;96117.53;10370293;28;20193;-76
2022/05/29 08:06:33;;;;;;;7.18;1.70;;;;;;;12.32;62.01;95963.38;10370677;28;20271;-76
2022/05/29 08:11:33;;;;;;;5.47;1.70;;;;;;;12.78;66.63;96077.84;10370437;28;20263;-77
2022/05/29 08:16:34;;;;;;;8.63;1.40;;;;;;;14.92;58.92;95960.63;10370256;28;20212;-77
2022/05/29 08:21:35;;;;;;;5.03;1.60;;;;;;;14.78;58.62;95949.25;10368923;28;20626;-76
2022/05/29 08:31:54;;;;;;;4.88;1.63;;;;;;;17.03;53.54;95900.25;10395856;28;20193;-77
2022/05/29 08:36:55;;;;;;;6.25;1.52;;;;;;;14.97;55.37;95910.69;10410734;28;20556;-76
2022/05/29 08:41:57;;;;;;;3.70;1.60;;;;;;;14.48;55.81;95906.59;10392457;28;20698;-77
2022/05/29 08:47:01;;;;;;;7.78;1.50;;;;;;;15.51;54.95;95922.81;10392638;28;20258;-76
2022/05/29 08:52:10;;;;;;;6.13;1.70;;;;;;;14.42;53.45;95847.59;10392757;28;20539;-76
2022/05/29 08:57:40;;;;;;;7.55;1.63;;;;;;;13.91;57.18;95939.28;10392105;28;20692;-76
2022/05/29 09:03:36;;;;;;;7.13;1.90;;;;;;;16.08;53.64;95894.97;10420286;28;20224;-77
2022/05/29 09:08:40;;;;;;;3.33;1.20;;;;;;;15.83;51.01;95840.25;10336689;28;20584;-77
2022/05/29 09:13:48;;;;;;;5.88;1.45;;;;;;;14.82;53.90;95889.81;10405663;28;20180;-77
2022/05/29 09:19:20;;;;;;;7.40;1.42;;;;;;;14.86;54.75;95909.50;10423076;28;20676;-76
2022/05/29 09:24:35;;;;;;;8.13;1.50;;;;;;;14.37;50.69;95797.34;10423177;28;20649;-76
2022/05/29 09:29:36;;;;;;;4.45;1.40;;;;;;;16.49;48.14;95793.25;10405078;28;20647;-77
2022/05/29 09:34:36;;;;;;;4.28;1.30;;;;;;;15.54;49.54;95800.13;10422900;28;20184;-76
2022/05/29 09:39:43;;;;;;;5.63;1.50;;;;;;;15.16;49.67;95788.53;10405026;28;20886;-76
2022/05/29 09:45:15;;;;;;;8.70;1.50;;;;;;;14.07;52.62;95855.66;10405031;28;20280;-76
2022/05/29 09:50:16;;;;;;;3.97;1.58;;;;;;;15.69;48.62;95792.75;10422345;28;20216;-76
2022/05/29 09:55:32;;;;;;;2.55;1.10;;;;;;;16.00;45.86;95719.88;10422408;28;20667;-76
2022/05/29 10:00:40;;;;;;;6.93;1.38;;;;;;;14.79;48.61;95764.47;10404974;28;20206;-76
2022/05/29 10:05:41;;;;;;;5.90;1.67;;;;;;;13.61;52.33;95832.66;10404887;28;20592;-76
2022/05/29 10:10:42;;;;;;;6.68;1.60;;;;;;;12.94;52.30;95813.88;10403420;28;20688;-76
2022/05/29 10:15:42;;;;;;;8.57;1.50;;;;;;;13.00;53.50;95865.69;10397898;28;20193;-76
2022/05/29 10:20:44;;;;;;;5.65;1.83;;;;;;;13.33;53.73;95881.72;10415265;28;20189;-76
2022/05/29 10:25:59;;;;;;;5.90;1.50;;;;;;;13.19;52.55;95846.59;10397312;28;20220;-76
2022/05/29 10:31:02;;;;;;;9.68;1.70;;;;;;;12.39;55.44;95890.72;10397087;28;20192;-76
2022/05/29 10:36:17;;;;;;;4.72;1.83;;;;;;;12.74;56.46;95930.22;10397192;28;20271;-77
2022/05/29 10:41:31;;;;;;;9.10;1.80;;;;;;;12.71;57.31;95948.19;10396699;28;20197;-76
2022/05/29 10:46:42;;;;;;;8.13;1.88;;;;;;;13.10;54.99;95900.34;10414474;28;20205;-76
2022/05/29 10:52:07;;;;;;;3.22;1.40;;;;;;;13.40;56.41;95939.63;10396285;28;20192;-76
2022/05/29 10:57:29;;;;;;;10.07;1.60;;;;;;;11.91;61.53;96019.00;10413590;28;20240;-77
2022/05/29 11:08:21;;;;;;;2.90;1.30;;;;;;;12.73;59.28;95973.28;10413164;28;20232;-77
2022/05/29 11:13:24;;;;;;;4.82;1.50;;;;;;;12.31;59.27;95948.59;10413486;28;20188;-77
2022/05/29 11:19:17;;;;;;;4.75;1.20;;;;;;;12.61;56.60;95890.69;10412705;28;20262;-77
2022/05/29 11:24:48;;;;;;;4.72;1.35;;;;;;;15.24;52.76;95853.44;10245677;28;20286;-77
2022/05/29 11:30:04;;;;;;;7.78;1.50;;;;;;;15.79;48.89;95746.59;10373969;28;20259;-77
2022/05/29 11:35:15;;;;;;;11.38;1.77;;;;;;;13.01;52.96;95793.72;10394688;28;20279;-77
2022/05/29 11:40:29;;;;;;;5.85;1.50;;;;;;;13.81;52.58;95795.84;10394557;28;20203;-75
2022/05/29 11:51:18;;;;;;;5.63;1.40;;;;;;;14.87;51.22;95786.34;10396691;28;20196;-75
2022/05/29 11:56:34;;;;;;;3.47;1.30;;;;;;;15.32;51.22;95803.06;10396222;28;20236;-75
2022/05/29 12:01:40;;;;;;;4.18;1.88;;;;;;;14.75;54.49;95854.75;10393850;28;20683;-75
2022/05/29 12:06:45;;;;;;;3.17;1.40;;;;;;;14.23;53.35;95813.13;10411304;28;20549;-75
2022/05/29 12:11:59;;;;;;;4.25;1.30;;;;;;;14.68;51.24;95769.56;10374514;28;20670;-75
2022/05/29 12:17:18;;;;;;;5.75;2.05;;;;;;;13.49;54.46;95830.59;10354244;28;20193;-76
2022/05/29 12:22:22;;;;;;;4.88;1.63;;;;;;;12.88;55.65;95841.78;10356264;28;20204;-75
2022/05/29 12:27:24;;;;;;;5.57;1.70;;;;;;;13.17;55.29;95830.22;10353985;28;20197;-77
2022/05/29 12:32:30;;;;;;;5.22;1.48;;;;;;;14.26;51.88;95769.78;10369382;28;20198;-77
2022/05/29 12:37:56;;;;;;;2.08;0.93;;;;;;;16.18;47.27;95691.88;10368878;28;20193;-74
2022/05/29 12:43:15;;;;;;;8.68;1.77;;;;;;;16.86;46.30;95688.38;10368961;28;20221;-76
2022/05/29 12:48:30;;;;;;;3.05;1.55;;;;;;;17.61;45.83;95704.91;10369433;28;20741;-76
2022/05/29 12:53:47;;;;;;;5.50;1.50;;;;;;;19.15;42.77;95652.69;10368852;28;20225;-77
2022/05/29 12:59:14;;;;;;;5.13;1.50;;;;;;;16.71;44.44;95621.78;10369851;28;20201;-77
2022/05/29 13:04:23;;;;;;;4.68;1.55;;;;;;;15.98;46.26;95660.34;10367915;28;20308;-78
2022/05/29 13:09:37;;;;;;;2.70;1.20;;;;;;;18.26;44.62;95696.19;10369327;28;20233;-77
2022/05/29 13:14:37;;;;;;;4.90;1.38;;;;;;;18.21;43.16;95640.41;10368300;28;20193;-76
2022/05/29 13:20:06;;;;;;;3.55;1.27;;;;;;;17.96;43.82;95664.47;10368828;28;20653;-76
2022/05/29 13:25:07;;;;;;;7.13;1.70;;;;;;;17.16;44.58;95668.25;10367886;28;20685;-77
2022/05/29 13:30:19;;;;;;;2.67;1.30;;;;;;;16.73;45.04;95669.97;10368767;28;20193;-77
2022/05/29 13:35:39;;;;;;;3.80;1.23;;;;;;;16.29;46.04;95680.56;10367569;28;20252;-76
2022/05/29 13:40:42;;;;;;;7.13;1.52;;;;;;;13.71;50.72;95723.34;10368762;28;20890;-76
2022/05/29 13:45:43;;;;;;;6.20;1.42;;;;;;;13.81;51.32;95757.16;10368442;28;20228;-76
2022/05/29 13:50:50;;;;;;;2.95;1.30;;;;;;;14.39;49.08;95713.63;10376330;28;20264;-76
2022/05/29 13:55:57;;;;;;;4.53;1.38;;;;;;;14.71;49.55;95746.22;10376044;28;20249;-76
2022/05/29 14:06:21;;;;;;;1.80;1.00;;;;;;;15.45;51.14;95799.59;10360731;28;20587;-75
2022/05/29 14:11:40;;;;;;;4.28;1.27;;;;;;;16.17;51.81;95833.75;10341542;28;20661;-75
2022/05/29 14:16:43;;;;;;;3.10;1.20;;;;;;;15.63;53.49;95856.16;10375477;28;20192;-77
2022/05/29 14:21:50;;;;;;;3.63;1.30;;;;;;;15.44;53.51;95849.94;10373559;28;20220;-77
2022/05/29 14:27:09;;;;;;;2.85;1.00;;;;;;;16.08;53.03;95850.06;10357463;28;20700;-75
2022/05/29 14:32:30;;;;;;;2.13;1.20;;;;;;;15.68;53.65;95846.59;10373006;28;20197;-75
2022/05/29 14:38:12;;;;;;;3.70;1.50;;;;;;;16.33;51.96;95831.63;10397195;28;20595;-72
2022/05/29 14:43:17;;;;;;;4.28;1.30;;;;;;;15.32;54.89;95884.88;10410311;28;20315;-73
2022/05/29 14:48:24;;;;;;;3.17;1.20;;;;;;;15.78;54.41;95877.06;10391565;28;20193;-74
2022/05/29 14:53:40;;;;;;;2.97;2.05;;;;;;;15.64;55.23;95889.47;10390898;28;20707;-73
2022/05/29 14:58:43;;;;;;;8.93;4.90;;;;;;;15.91;54.71;95886.72;10408130;28;20204;-74
2022/05/29 15:03:46;;;;;;;5.82;2.75;;;;;;;15.95;55.82;95909.88;10409342;28;20216;-74
2022/05/29 15:14:10;;;;;;;7.20;2.05;;;;;;;16.43;53.08;95839.88;10409243;28;20188;-74
2022/05/29 15:19:18;;;;;;;2.53;1.10;;;;;;;16.65;50.99;95791.91;10409085;28;20197;-74
2022/05/29 15:24:25;;;;;;;2.70;1.17;;;;;;;16.68;53.25;95853.09;10390805;28;20304;-74
2022/05/29 15:29:29;;;;;;;4.10;1.50;;;;;;;16.93;49.98;95775.59;10408328;28;20246;-75
2022/05/29 15:34:45;;;;;;;4.75;1.30;;;;;;;16.84;50.72;95793.53;10390481;28;20188;-75
2022/05/29 15:40:11;;;;;;;3.75;1.10;;;;;;;19.36;48.19;95793.84;10390071;28;20208;-75
2022/05/29 15:45:33;;;;;;;3.28;1.00;;;;;;;21.83;40.87;95651.84;10390198;28;20228;-74
2022/05/29 15:50:46;;;;;;;1.52;1.00;;;;;;;23.38;38.71;95634.81;10390735;28;20189;-74
2022/05/29 15:56:05;;;;;;;4.85;1.75;;;;;;;22.68;39.80;95632.44;10407103;28;20335;-75
2022/05/29 16:01:17;;;;;;;3.10;1.02;;;;;;;21.68;38.85;95574.41;10389790;28;20250;-75
2022/05/29 16:06:38;;;;;;;3.15;1.40;;;;;;;19.41;44.33;95672.53;10406029;28;20307;-78
2022/05/29 16:11:52;;;;;;;3.53;1.30;;;;;;;18.66;45.31;95681.41;10376119;28;20625;-76
2022/05/29 16:17:05;;;;;;;3.75;1.13;;;;;;;16.40;50.66;95761.00;10413335;28;20570;-76
2022/05/29 16:22:35;;;;;;;4.10;1.70;;;;;;;15.56;55.03;95848.28;10379301;28;20231;-76
2022/05/29 16:27:47;;;;;;;3.30;1.30;;;;;;;14.66;55.29;95833.03;10394021;28;20208;-75
2022/05/29 16:32:53;;;;;;;7.25;1.55;;;;;;;14.63;58.06;95894.88;10392493;28;20180;-75
2022/05/29 16:48:58;;;;;;;4.88;1.40;;;;;;;14.07;57.66;95874.91;10410251;28;20599;-74
2022/05/29 16:54:00;;;;;;;6.35;2.15;;;;;;;14.09;57.73;95880.78;10392146;28;20236;-73
2022/05/29 16:59:17;;;;;;;13.02;5.72;;;;;;;13.70;57.89;95870.94;10410248;28;20184;-74
2022/05/29 17:04:30;;;;;;;5.80;1.90;;;;;;;13.23;58.89;95885.66;10392399;28;20227;-74
2022/05/29 17:14:41;;;;;;;6.30;1.85;;;;;;;12.73;60.62;95918.09;10393822;28;20202;-74
2022/05/29 17:19:41;;;;;;;4.88;1.90;;;;;;;12.49;61.67;95927.16;10410567;28;20288;-75
2022/05/29 17:25:07;;;;;;;6.53;2.00;;;;;;;12.35;62.61;95947.25;10417927;28;20314;-75
2022/05/29 17:30:10;;;;;;;8.07;3.90;;;;;;;12.32;64.62;95981.75;10418753;28;20197;-75
2022/05/29 17:35:28;;;;;;;4.85;1.50;;;;;;;11.51;70.92;96065.66;10400055;28;20192;-75
2022/05/29 17:40:34;;;;;;;4.30;1.70;;;;;;;11.02;74.55;96051.97;10417786;28;20196;-74
2022/05/29 17:45:36;;;;;;;5.03;1.98;;;;;;;11.40;75.74;96035.44;10416880;28;20235;-75
2022/05/29 17:50:41;;;;;;;5.38;1.50;;;;;;;11.38;74.25;95996.28;10399461;28;20196;-76
2022/05/29 17:55:42;;;;;;;3.47;1.42;;;;;;;11.03;74.04;95987.28;10398912;28;20714;-74
2022/05/29 18:00:44;;;;;;;6.60;1.87;;;;;;;11.04;75.91;96005.44;10416699;28;20546;-75
2022/05/29 18:05:44;;;;;;;3.63;1.60;;;;;;;10.84;74.84;96001.66;10416540;28;20644;-74
2022/05/29 18:10:49;;;;;;;4.17;1.57;;;;;;;10.80;77.96;96022.16;10416434;28;20204;-75
2022/05/29 18:15:50;;;;;;;5.17;1.70;;;;;;;10.78;75.22;95997.13;10398365;28;20251;-75
2022/05/29 18:20:51;;;;;;;5.73;1.80;;;;;;;10.65;76.94;96008.19;10412354;28;20206;-76
2022/05/29 18:25:53;;;;;;;5.97;1.60;;;;;;;10.66;77.11;96013.25;10413954;28;20291;-75
2022/05/29 18:30:53;;;;;;;4.60;1.50;;;;;;;10.53;76.05;95995.50;10396220;28;20238;-76
2022/05/29 18:35:53;;;;;;;4.47;1.50;;;;;;;10.34;76.00;95988.09;10395075;28;20258;-75
2022/05/29 18:40:56;;;;;;;1.73;1.10;;;;;;;10.20;75.56;95979.16;10412891;28;20192;-76
2022/05/29 18:45:56;;;;;;;7.97;1.70;;;;;;;9.99;75.55;95980.53;10413555;28;20224;-76
2022/05/29 18:50:56;;;;;;;2.77;1.50;;;;;;;9.98;76.80;95994.63;10413225;28;20679;-75
2022/05/29 18:55:57;;;;;;;2.03;1.23;;;;;;;9.78;76.30;95993.38;10413304;28;20236;-75
2022/05/29 19:00:58;;;;;;;2.73;1.33;;;;;;;9.73;77.85;95999.13;10412736;28;20219;-75
2022/05/29 19:05:58;;;;;;;2.47;1.40;;;;;;;9.70;76.68;95993.44;10412321;28;20231;-75
2022/05/29 19:10:59;;;;;;;2.27;1.23;;;;;;;9.52;75.93;95983.19;10412468;28;20554;-75
2022/05/29 19:16:08;;;;;;;2.93;1.50;;;;;;;9.34;78.99;96022.59;10411852;28;20724;-75
2022/05/29 19:21:08;;;;;;;2.00;1.40;;;;;;;9.31;79.37;96017.69;10412281;28;20193;-75
2022/05/29 19:26:15;;;;;;;2.83;1.20;;;;;;;9.37;78.77;96004.78;10411909;28;20224;-76
2022/05/29 19:31:15;;;;;;;1.37;1.20;;;;;;;9.31;79.75;96012.47;10411725;28;20195;-75
2022/05/29 19:36:18;;;;;;;2.83;1.13;;;;;;;9.00;81.33;96024.41;10393992;28;20185;-76
2022/05/29 19:41:21;;;;;;;2.97;1.30;;;;;;;9.00;82.53;96028.81;10411143;28;20193;-76
2022/05/29 19:46:24;;;;;;;1.33;1.20;;;;;;;8.82;83.49;96034.19;10411173;28;20346;-75
2022/05/29 19:51:26;;;;;;;2.80;1.23;;;;;;;8.74;84.90;96037.63;10410945;28;20216;-75
2022/05/29 19:56:26;;;;;;;3.10;1.43;;;;;;;8.62;87.75;96044.13;10393154;28;20256;-76
2022/05/29 20:01:29;;;;;;;1.70;1.20;;;;;;;8.50;88.85;96028.78;10410860;28;20279;-76
2022/05/29 20:06:41;;;;;;;1.47;1.13;;;;;;;8.64;86.00;96019.50;10410114;28;20224;-76
2022/05/29 20:11:43;;;;;;;1.93;1.17;;;;;;;8.53;86.04;96025.03;10394928;28;20238;-76
2022/05/29 20:16:46;;;;;;;2.43;1.30;;;;;;;8.73;84.90;96018.53;10377392;28;20636;-77
2022/05/29 20:21:46;;;;;;;1.17;1.07;;;;;;;8.77;85.19;96023.44;10411038;28;20192;-76
2022/05/29 20:26:47;;;;;;;2.40;1.30;;;;;;;8.37;87.01;96023.97;10411014;28;20225;-76
2022/05/29 20:31:48;;;;;;;1.90;1.30;;;;;;;8.29;88.17;96031.00;10410727;28;20531;-76
2022/05/29 20:36:48;;;;;;;3.23;1.33;;;;;;;8.24;92.07;96033.25;10410379;28;20184;-77
2022/05/29 20:41:50;;;;;;;5.03;1.50;;;;;;;8.13;95.22;96036.97;10410505;28;20192;-76
2022/05/29 20:52:15;;;;;;;2.97;1.53;;;;;;;7.94;96.01;96056.28;10409952;28;20514;-76
2022/05/29 20:57:19;;;;;;;2.33;1.70;;;;;;;8.15;93.52;96053.28;10409242;28;20248;-76
2022/05/29 21:02:20;;;;;;;3.27;1.73;;;;;;;8.16;95.55;96060.97;10409735;28;20219;-76
2022/05/29 21:33:19;;;;;;;3.37;1.70;;;;;;;7.83;100.00;96075.63;10250735;28;20673;-76
2022/05/29 21:38:20;;;;;;;3.73;1.70;;;;;;;7.85;100.00;96073.69;10368487;28;20194;-76
2022/05/29 21:43:20;;;;;;;2.00;1.60;;;;;;;7.84;100.00;96079.88;10367965;28;20223;-76
2022/05/29 21:48:21;;;;;;;2.10;1.60;;;;;;;7.87;100.00;96066.50;10368068;28;20292;-76
2022/05/29 21:53:24;;;;;;;4.43;1.60;;;;;;;7.99;100.00;96070.50;10367772;28;20217;-76
2022/05/29 21:58:25;;;;;;;5.10;2.00;;;;;;;7.91;100.00;96067.03;10367948;28;20267;-75
2022/05/29 22:03:28;;;;;;;3.13;1.80;;;;;;;7.99;100.00;96070.50;10367715;28;20221;-76
2022/05/29 22:08:28;;;;;;;1.63;1.50;;;;;;;7.93;100.00;96072.91;10370716;28;20194;-76
2022/05/29 22:13:29;;;;;;;3.50;1.73;;;;;;;7.96;100.00;96068.22;10374651;28;20672;-76
2022/05/29 22:18:29;;;;;;;2.70;1.57;;;;;;;7.98;100.00;96068.88;10374474;28;20197;-76
2022/05/29 22:23:30;;;;;;;3.10;1.50;;;;;;;7.92;100.00;96055.66;10373986;28;20221;-76
2022/05/29 22:28:30;;;;;;;3.03;1.90;;;;;;;7.97;100.00;96051.56;10374170;28;20197;-76
2022/05/29 22:33:36;;;;;;;4.47;1.67;;;;;;;8.06;100.00;96051.63;10374337;28;20181;-76
2022/05/29 22:38:37;;;;;;;2.23;1.50;;;;;;;7.98;100.00;96063.66;10373600;28;20201;-76
2022/05/29 22:43:37;;;;;;;2.40;1.60;;;;;;;7.75;100.00;96060.78;10373319;28;20221;-76
2022/05/29 22:48:46;;;;;;;3.43;1.60;;;;;;;7.71;100.00;96059.44;10373536;28;20832;-76
2022/05/29 22:53:57;;;;;;;2.30;1.57;;;;;;;7.52;100.00;96062.25;10355922;28;20304;-76
2022/05/29 22:58:57;;;;;;;3.23;1.50;;;;;;;7.59;100.00;96051.06;10355149;28;20197;-76
2022/05/29 23:04:08;;;;;;;4.83;1.90;;;;;;;7.63;100.00;96056.78;10372785;28;20221;-76
2022/05/29 23:09:09;;;;;;;8.50;2.33;;;;;;;7.39;100.00;96055.66;10355352;28;20243;-76
2022/05/29 23:14:09;;;;;;;4.30;1.80;;;;;;;7.45;100.00;96055.03;10372436;28;20538;-76
2022/05/29 23:19:10;;;;;;;2.90;2.03;;;;;;;7.48;100.00;96061.75;10371704;28;20252;-75
2022/05/29 23:24:12;;;;;;;3.07;2.30;;;;;;;7.25;100.00;96056.22;10371928;28;20218;-77
2022/05/29 23:29:12;;;;;;;2.63;2.07;;;;;;;7.20;100.00;96053.22;10354355;28;20559;-77
2022/05/29 23:34:13;;;;;;;2.13;1.90;;;;;;;7.13;100.00;96063.44;10371713;28;20238;-77
2022/05/29 23:39:13;;;;;;;2.67;1.90;;;;;;;7.06;100.00;96054.59;10371583;28;20202;-77
2022/05/29 23:44:14;;;;;;;3.67;2.30;;;;;;;7.04;100.00;96051.34;10371024;28;20221;-77
2022/05/29 23:49:19;;;;;;;2.33;1.97;;;;;;;6.92;100.00;96051.59;10371028;28;20261;-77
2022/05/29 23:54:19;;;;;;;5.67;2.33;;;;;;;6.96;100.00;96065.09;10353441;28;20236;-77
2022/05/29 23:59:19;;;;;;;2.47;2.20;;;;;;;6.90;100.00;96055.28;10370449;28;20287;-77
